createdAt,value
2023-03-13T00:01:18.455Z,99315.53
2023-03-13T00:03:46.322Z,99317.28
2023-03-13T00:06:14.512Z,99314.25
2023-03-13T00:08:42.576Z,99320.13
2023-03-13T00:11:12.177Z,99307.34
2023-03-13T00:13:39.641Z,99313.66
2023-03-13T00:16:09.118Z,99319.19
2023-03-13T00:18:37.142Z,99318.03
2023-03-13T00:21:09.014Z,99311.44
2023-03-13T00:23:38.219Z,99304.22
2023-03-13T00:26:07.898Z,99311.44
2023-03-13T00:28:37.220Z,99322.19
2023-03-13T00:31:06.093Z,99313.22
2023-03-13T00:33:38.033Z,99304.12
2023-03-13T00:36:07.964Z,99301.88
2023-03-13T00:38:35.949Z,99304.91
2023-03-13T00:41:05.133Z,99306.47
2023-03-13T00:43:33.180Z,99295.13
2023-03-13T00:46:01.541Z,99306.72
2023-03-13T00:48:29.053Z,99295.75
2023-03-13T00:50:56.778Z,99296.69
2023-03-13T00:53:24.274Z,99294.75
2023-03-13T00:55:53.157Z,99277.13
2023-03-13T00:58:21.646Z,99283.69
2023-03-13T01:00:49.224Z,99278.25
2023-03-13T01:03:16.847Z,99281.59
2023-03-13T01:05:44.596Z,99276.84
2023-03-13T01:08:11.997Z,99274.53
2023-03-13T01:10:39.385Z,99267.94
2023-03-13T01:13:07.461Z,99255.47
2023-03-13T01:15:35.821Z,99257.84
2023-03-13T01:18:03.580Z,99262.19
2023-03-13T01:20:33.241Z,99258.91
2023-03-13T01:23:00.690Z,99253.00
2023-03-13T01:25:28.093Z,99255.91
2023-03-13T01:27:55.875Z,99251.19
2023-03-13T01:30:23.538Z,99245.75
2023-03-13T01:32:50.971Z,99253.25
2023-03-13T01:35:19.720Z,99254.84
2023-03-13T01:37:47.174Z,99249.13
2023-03-13T01:40:14.825Z,99251.56
2023-03-13T01:42:53.193Z,99236.16
2023-03-13T01:45:55.286Z,99240.97
2023-03-13T01:48:29.084Z,99234.03
2023-03-13T01:50:57.387Z,99234.25
2023-03-13T01:53:25.593Z,99232.50
2023-03-13T01:55:54.573Z,99230.06
2023-03-13T01:58:22.341Z,99238.72
2023-03-13T02:00:51.076Z,99240.53
2023-03-13T02:03:20.352Z,99236.41
2023-03-13T02:05:49.428Z,99234.50
2023-03-13T02:08:29.657Z,99230.87
2023-03-13T02:11:08.582Z,99230.69
2023-03-13T02:13:36.002Z,99230.66
2023-03-13T02:16:04.356Z,99227.88
2023-03-13T02:18:31.948Z,99227.84
2023-03-13T02:21:10.465Z,99226.72
2023-03-13T02:23:48.758Z,99234.72
2023-03-13T02:26:16.470Z,99221.56
2023-03-13T02:28:44.005Z,99224.72
2023-03-13T02:31:12.355Z,99222.72
2023-03-13T02:33:41.682Z,99235.34
2023-03-13T02:36:11.429Z,99226.06
2023-03-13T02:38:45.257Z,99237.88
2023-03-13T02:41:13.918Z,99240.84
2023-03-13T02:43:41.442Z,99240.03
2023-03-13T02:46:11.547Z,99231.31
2023-03-13T02:48:45.236Z,99225.59
2023-03-13T02:51:33.575Z,99231.28
2023-03-13T02:54:06.353Z,99237.16
2023-03-13T02:56:36.722Z,99240.84
2023-03-13T02:59:04.770Z,99240.59
2023-03-13T03:01:33.074Z,99243.03
2023-03-13T03:04:00.640Z,99247.37
2023-03-13T03:06:28.421Z,99249.81
2023-03-13T03:08:56.186Z,99256.63
2023-03-13T03:11:23.968Z,99254.16
2023-03-13T03:13:52.079Z,99254.59
2023-03-13T03:16:20.697Z,99255.38
2023-03-13T03:18:50.072Z,99249.41
2023-03-13T03:21:18.097Z,99241.19
2023-03-13T03:23:45.529Z,99227.00
2023-03-13T03:26:13.195Z,99237.34
2023-03-13T03:28:40.910Z,99235.94
2023-03-13T03:31:10.579Z,99239.16
2023-03-13T03:33:38.923Z,99237.97
2023-03-13T03:36:09.882Z,99232.31
2023-03-13T03:38:39.752Z,99242.19
2023-03-13T03:41:08.863Z,99239.16
2023-03-13T03:43:36.980Z,99238.41
2023-03-13T03:46:05.039Z,99235.53
2023-03-13T03:48:33.297Z,99240.97
2023-03-13T03:51:01.756Z,99236.84
2023-03-13T03:53:29.440Z,99245.25
2023-03-13T03:55:57.165Z,99245.94
2023-03-13T03:58:24.819Z,99250.75
2023-03-13T04:00:54.195Z,99259.09
2023-03-13T04:03:22.087Z,99259.66
2023-03-13T04:05:49.886Z,99261.16
2023-03-13T04:08:17.626Z,99266.19
2023-03-13T04:10:45.583Z,99271.06
2023-03-13T04:13:13.140Z,99271.59
2023-03-13T04:15:41.040Z,99261.69
2023-03-13T04:18:10.101Z,99266.19
2023-03-13T04:20:37.774Z,99267.00
2023-03-13T04:23:05.179Z,99262.00
2023-03-13T04:25:32.841Z,99263.53
2023-03-13T04:28:00.686Z,99272.53
2023-03-13T04:30:28.635Z,99277.31
2023-03-13T04:32:56.697Z,99281.28
2023-03-13T04:35:24.969Z,99279.69
2023-03-13T04:37:52.603Z,99289.28
2023-03-13T04:40:21.218Z,99289.31
2023-03-13T04:42:49.370Z,99285.03
2023-03-13T04:45:16.984Z,99285.44
2023-03-13T04:47:46.682Z,99279.84
2023-03-13T04:50:16.585Z,99280.28
2023-03-13T04:52:49.175Z,99268.81
2023-03-13T04:55:17.934Z,99272.59
2023-03-13T04:57:45.671Z,99279.44
2023-03-13T05:00:14.082Z,99289.00
2023-03-13T05:02:42.523Z,99294.38
2023-03-13T05:05:11.378Z,99298.47
2023-03-13T05:07:42.903Z,99305.88
2023-03-13T05:10:10.938Z,99303.78
2023-03-13T05:12:39.224Z,99304.75
2023-03-13T05:15:08.817Z,99300.50
2023-03-13T05:17:36.445Z,99293.81
2023-03-13T05:20:06.775Z,99296.66
2023-03-13T05:22:34.934Z,99303.38
2023-03-13T05:25:05.913Z,99304.44
2023-03-13T05:27:34.098Z,99305.78
2023-03-13T05:30:02.120Z,99307.84
2023-03-13T05:32:30.636Z,99311.56
2023-03-13T05:34:58.838Z,99325.38
2023-03-13T05:37:27.670Z,99315.87
2023-03-13T05:39:55.597Z,99314.81
2023-03-13T05:42:23.531Z,99314.25
2023-03-13T05:44:51.360Z,99314.81
2023-03-13T05:47:19.207Z,99317.00
2023-03-13T05:49:46.686Z,99321.31
2023-03-13T05:52:14.478Z,99315.19
2023-03-13T05:54:42.032Z,99320.47
2023-03-13T05:57:09.814Z,99326.34
2023-03-13T05:59:37.723Z,99328.00
2023-03-13T06:02:05.917Z,99320.09
2023-03-13T06:04:34.631Z,99324.03
2023-03-13T06:07:02.336Z,99328.13
2023-03-13T06:09:29.809Z,99317.63
2023-03-13T06:11:57.818Z,99318.56
2023-03-13T06:14:25.447Z,99317.22
2023-03-13T06:16:57.053Z,99310.75
2023-03-13T06:19:25.295Z,99305.84
2023-03-13T06:21:52.796Z,99309.06
2023-03-13T06:24:20.159Z,99305.69
2023-03-13T06:26:51.615Z,99303.31
2023-03-13T06:29:19.167Z,99311.00
2023-03-13T06:31:46.684Z,99305.22
2023-03-13T06:34:14.773Z,99305.16
2023-03-13T06:36:42.165Z,99294.13
2023-03-13T06:39:09.983Z,99294.72
2023-03-13T06:41:37.667Z,99304.75
2023-03-13T06:44:05.467Z,99303.59
2023-03-13T06:46:33.051Z,99297.38
2023-03-13T06:49:04.567Z,99312.16
2023-03-13T06:51:32.297Z,99316.03
2023-03-13T06:53:59.669Z,99310.78
2023-03-13T06:56:27.458Z,99311.44
2023-03-13T06:58:54.874Z,99313.94
2023-03-13T07:01:22.387Z,99307.47
2023-03-13T07:03:50.225Z,99310.25
2023-03-13T07:06:18.702Z,99304.06
2023-03-13T07:08:46.201Z,99299.63
2023-03-13T07:11:14.537Z,99294.50
2023-03-13T07:13:42.056Z,99304.84
2023-03-13T07:16:12.007Z,99305.66
2023-03-13T07:18:44.883Z,99303.66
2023-03-13T07:21:12.828Z,99295.91
2023-03-13T07:23:40.998Z,99295.16
2023-03-13T07:26:13.544Z,99295.25
2023-03-13T07:28:42.108Z,99301.19
2023-03-13T07:31:15.637Z,99303.62
2023-03-13T07:33:44.893Z,99306.56
2023-03-13T07:36:14.004Z,99297.63
2023-03-13T07:38:42.958Z,99299.28
2023-03-13T07:41:12.676Z,99297.84
2023-03-13T07:43:40.095Z,99289.12
2023-03-13T07:46:11.067Z,99288.12
2023-03-13T07:48:41.416Z,99285.69
2023-03-13T07:51:30.309Z,99275.19
2023-03-13T07:54:04.717Z,99275.78
2023-03-13T07:56:32.170Z,99274.91
2023-03-13T07:58:59.583Z,99268.09
2023-03-13T08:01:30.538Z,99262.84
2023-03-13T08:04:01.451Z,99266.53
2023-03-13T08:06:33.661Z,99263.22
2023-03-13T08:09:02.009Z,99257.69
2023-03-13T08:11:29.908Z,99250.50
2023-03-13T08:13:57.825Z,99246.50
2023-03-13T08:16:31.769Z,99233.13
2023-03-13T08:37:31.096Z,99214.09
2023-03-13T08:39:58.805Z,99216.72
2023-03-13T08:42:26.158Z,99207.03
2023-03-13T08:44:53.569Z,99211.03
2023-03-13T08:47:21.247Z,99209.16
2023-03-13T08:49:48.693Z,99202.56
2023-03-13T08:52:16.096Z,99199.56
2023-03-13T08:54:43.879Z,99200.22
2023-03-13T08:57:11.304Z,99191.28
2023-03-13T08:59:38.708Z,99196.47
2023-03-13T09:02:06.519Z,99193.16
2023-03-13T09:04:33.992Z,99190.06
2023-03-13T09:07:01.384Z,99193.25
2023-03-13T09:09:29.094Z,99188.84
2023-03-13T09:11:56.482Z,99181.19
2023-03-13T09:14:23.897Z,99188.28
2023-03-13T09:16:51.624Z,99180.19
2023-03-13T09:19:19.027Z,99181.09
2023-03-13T09:21:46.619Z,99181.47
2023-03-13T09:24:14.302Z,99182.09
2023-03-13T09:26:48.946Z,99172.06
2023-03-13T09:29:22.900Z,99173.97
2023-03-13T09:31:50.312Z,99162.59
2023-03-13T09:34:17.712Z,99169.47
2023-03-13T09:36:45.425Z,99162.72
2023-03-13T09:39:12.896Z,99173.13
2023-03-13T09:41:55.459Z,99166.53
2023-03-13T09:44:29.421Z,99144.22
2023-03-13T09:47:01.935Z,99151.38
2023-03-13T09:49:37.228Z,99146.91
2023-03-13T09:52:12.359Z,99161.81
2023-03-13T09:54:57.379Z,99149.63
2023-03-13T09:57:32.762Z,99150.62
2023-03-13T10:00:09.173Z,99139.47
2023-03-13T10:02:38.960Z,99138.63
2023-03-13T10:05:17.028Z,99131.72
2023-03-13T10:07:44.777Z,99125.50
2023-03-13T10:10:18.670Z,99126.50
2023-03-13T10:12:48.656Z,99119.56
2023-03-13T10:15:22.179Z,99110.81
2023-03-13T10:17:49.936Z,99110.88
2023-03-13T10:20:29.449Z,99110.03
2023-03-13T10:23:02.627Z,99105.72
2023-03-13T10:25:34.239Z,99119.66
2023-03-13T10:28:02.553Z,99111.84
2023-03-13T10:30:32.848Z,99097.06
2023-03-13T10:33:29.821Z,99106.63
2023-03-13T10:36:07.642Z,99095.34
2023-03-13T10:38:46.261Z,99095.34
2023-03-13T10:41:27.328Z,99091.84
2023-03-13T10:43:59.678Z,99099.50
2023-03-13T10:46:35.988Z,99097.72
2023-03-13T10:49:05.477Z,99093.22
2023-03-13T10:51:38.673Z,99085.59
2023-03-13T10:54:24.303Z,99081.19
2023-03-13T10:56:55.946Z,99080.34
2023-03-13T10:59:25.633Z,99080.34
2023-03-13T11:02:01.140Z,99072.47
2023-03-13T11:04:31.150Z,99073.34
2023-03-13T11:07:05.150Z,99065.44
2023-03-13T11:09:33.366Z,99064.72
2023-03-13T11:12:14.182Z,99050.44
2023-03-13T11:14:42.846Z,99053.91
2023-03-13T11:17:19.704Z,99041.06
2023-03-13T11:19:59.233Z,99044.47
2023-03-13T11:23:04.043Z,99037.25
2023-03-13T11:25:46.669Z,99044.22
2023-03-13T11:28:28.280Z,99028.56
2023-03-13T11:31:07.871Z,99024.78
2023-03-13T11:33:39.294Z,99025.63
2023-03-13T11:36:40.885Z,99028.44
2023-03-13T11:39:33.320Z,99025.69
2023-03-13T11:42:13.716Z,99013.72
2023-03-13T11:45:22.456Z,99014.38
2023-03-13T11:48:00.931Z,99016.09
2023-03-13T11:51:01.002Z,99015.94
2023-03-13T11:53:31.254Z,99001.09
2023-03-13T11:56:21.853Z,98990.16
2023-03-13T11:59:16.752Z,98990.09
2023-03-13T12:01:49.938Z,98982.19
2023-03-13T12:04:36.776Z,98971.25
2023-03-13T12:07:16.050Z,98970.47
2023-03-13T12:09:50.140Z,98975.78
2023-03-13T12:12:26.284Z,98966.84
2023-03-13T12:15:19.088Z,98962.25
2023-03-13T12:18:02.192Z,98944.41
2023-03-13T12:20:50.152Z,98944.66
2023-03-13T12:23:20.460Z,98943.91
2023-03-13T12:26:31.663Z,98931.34
2023-03-13T12:29:37.494Z,98942.69
2023-03-13T12:32:19.037Z,98932.06
2023-03-13T12:35:05.321Z,98927.81
2023-03-13T12:37:47.622Z,98918.97
2023-03-13T12:40:24.145Z,98906.75
2023-03-13T12:43:19.145Z,98914.22
2023-03-13T12:46:06.720Z,98903.63
2023-03-13T12:48:40.466Z,98894.38
2023-03-13T12:51:30.247Z,98887.25
2023-03-13T12:54:10.269Z,98884.75
2023-03-13T12:56:43.091Z,98875.91
2023-03-13T12:59:23.311Z,98862.75
2023-03-13T13:01:53.726Z,98855.59
2023-03-13T13:04:22.433Z,98853.84
2023-03-13T13:06:56.131Z,98849.87
2023-03-13T13:09:27.936Z,98838.31
2023-03-13T13:11:57.724Z,98846.44
2023-03-13T13:14:28.350Z,98847.22
2023-03-13T13:17:11.073Z,98865.94
2023-03-13T13:19:41.446Z,98857.19
2023-03-13T13:22:36.958Z,98867.78
2023-03-13T13:25:04.916Z,98850.34
2023-03-13T13:27:32.310Z,98860.47
2023-03-13T13:30:01.353Z,98853.66
2023-03-13T13:32:32.034Z,98847.38
2023-03-13T13:35:18.195Z,98847.16
2023-03-13T13:37:49.319Z,98837.28
2023-03-13T13:40:23.927Z,98837.00
2023-03-13T13:42:53.906Z,98835.41
2023-03-13T13:45:25.745Z,98835.31
2023-03-13T13:48:19.723Z,98817.19
2023-03-13T13:51:14.184Z,98824.66
2023-03-13T13:53:54.285Z,98815.16
2023-03-13T13:56:27.772Z,98803.28
2023-03-13T13:59:25.844Z,98803.78
2023-03-13T14:02:10.229Z,98793.91
2023-03-13T14:04:47.620Z,98811.47
2023-03-13T14:07:19.320Z,98822.09
2023-03-13T14:09:52.543Z,98806.44
2023-03-13T14:12:32.161Z,98816.75
2023-03-13T14:15:18.140Z,98810.66
2023-03-13T14:18:00.363Z,98802.66
2023-03-13T14:20:29.606Z,98818.38
2023-03-13T14:23:01.598Z,98813.56
2023-03-13T14:25:41.681Z,98808.72
2023-03-13T14:28:18.016Z,98813.56
2023-03-13T14:30:46.504Z,98812.03
2023-03-13T14:33:14.065Z,98812.87
2023-03-13T14:35:42.240Z,98807.88
2023-03-13T14:38:24.631Z,98801.22
2023-03-13T14:40:53.243Z,98804.59
2023-03-13T14:43:27.107Z,98792.69
2023-03-13T14:45:54.683Z,98811.69
2023-03-13T14:48:32.023Z,98807.53
2023-03-13T14:51:15.655Z,98795.13
2023-03-13T14:53:55.582Z,98793.31
2023-03-13T14:56:34.931Z,98805.56
2023-03-13T14:59:16.778Z,98800.19
2023-03-13T15:01:44.831Z,98796.47
2023-03-13T15:04:12.652Z,98797.63
2023-03-13T15:06:40.101Z,98788.00
2023-03-13T15:09:15.907Z,98792.38
2023-03-13T15:11:54.959Z,98783.97
2023-03-13T15:14:36.547Z,98782.78
2023-03-13T15:17:06.067Z,98779.19
2023-03-13T15:19:33.481Z,98772.31
2023-03-13T15:22:01.022Z,98765.87
2023-03-13T15:24:28.686Z,98768.47
2023-03-13T15:26:56.188Z,98757.34
2023-03-13T15:29:23.602Z,98753.75
2023-03-13T15:31:51.314Z,98740.59
2023-03-13T15:34:19.989Z,98741.72
2023-03-13T15:36:47.361Z,98744.72
2023-03-13T15:39:22.512Z,98746.19
2023-03-13T15:41:50.107Z,98741.22
2023-03-13T15:44:17.994Z,98744.53
2023-03-13T15:46:46.189Z,98736.22
2023-03-13T15:49:13.957Z,98734.28
2023-03-13T15:51:41.678Z,98732.69
2023-03-13T15:54:09.027Z,98725.06
2023-03-13T15:56:37.578Z,98730.28
2023-03-13T15:59:16.098Z,98737.53
2023-03-13T16:01:45.220Z,98730.63
2023-03-13T16:04:13.050Z,98729.94
2023-03-13T16:06:40.441Z,98721.00
2023-03-13T16:09:07.889Z,98718.34
2023-03-13T16:11:35.785Z,98714.03
2023-03-13T16:14:03.266Z,98718.75
2023-03-13T16:16:36.931Z,98721.19
2023-03-13T16:19:05.142Z,98722.66
2023-03-13T16:21:34.811Z,98727.91
2023-03-13T16:24:02.464Z,98723.13
2023-03-13T16:26:31.511Z,98728.47
2023-03-13T16:28:59.276Z,98720.44
2023-03-13T16:31:36.433Z,98717.28
2023-03-13T16:34:04.192Z,98703.03
2023-03-13T16:36:32.639Z,98718.66
2023-03-13T16:39:02.120Z,98715.31
2023-03-13T16:41:30.038Z,98718.31
2023-03-13T16:43:57.526Z,98718.94
2023-03-13T16:46:30.397Z,98721.31
2023-03-13T16:48:58.672Z,98726.47
2023-03-13T16:51:27.647Z,98725.97
2023-03-13T16:53:56.760Z,98716.12
2023-03-13T16:56:38.858Z,98718.94
2023-03-13T16:59:10.834Z,98726.13
2023-03-13T17:01:39.144Z,98734.22
2023-03-13T17:04:06.902Z,98726.25
2023-03-13T17:06:37.017Z,98724.84
2023-03-13T17:09:11.169Z,98740.53
2023-03-13T17:11:38.541Z,98744.13
2023-03-13T17:14:07.407Z,98738.09
2023-03-13T17:16:38.084Z,98739.97
2023-03-13T17:19:08.648Z,98742.50
2023-03-13T17:21:37.135Z,98731.38
2023-03-13T17:24:07.062Z,98736.41
2023-03-13T17:26:37.687Z,98734.69
2023-03-13T17:29:06.868Z,98723.62
2023-03-13T17:31:38.563Z,98719.06
2023-03-13T17:34:08.420Z,98727.75
2023-03-13T17:36:37.370Z,98738.31
2023-03-13T17:39:09.161Z,98736.72
2023-03-13T17:41:37.693Z,98740.16
2023-03-13T17:44:10.564Z,98746.38
2023-03-13T17:46:49.913Z,98741.94
2023-03-13T17:49:20.369Z,98740.94
2023-03-13T17:51:50.302Z,98737.75
2023-03-13T17:54:18.923Z,98735.19
2023-03-13T17:56:46.920Z,98745.56
2023-03-13T17:59:19.641Z,98738.59
2023-03-13T18:01:47.562Z,98726.31
2023-03-13T18:04:16.963Z,98724.72
2023-03-13T18:06:47.196Z,98728.28
2023-03-13T18:09:18.364Z,98730.69
2023-03-13T18:11:49.751Z,98728.97
2023-03-13T18:14:18.436Z,98719.50
2023-03-13T18:16:51.280Z,98711.63
2023-03-13T18:19:22.808Z,98709.12
2023-03-13T18:21:53.761Z,98714.31
2023-03-13T18:24:22.715Z,98716.91
2023-03-13T18:26:51.681Z,98731.69
2023-03-13T18:29:30.328Z,98737.97
2023-03-13T18:32:01.096Z,98721.19
2023-03-13T18:34:30.487Z,98723.06
2023-03-13T18:37:05.816Z,98718.63
2023-03-13T18:39:34.928Z,98714.53
2023-03-13T18:42:03.928Z,98724.97
2023-03-13T18:44:34.108Z,98710.19
2023-03-13T18:47:05.651Z,98711.88
2023-03-13T18:49:35.079Z,98697.19
2023-03-13T18:52:04.201Z,98709.34
2023-03-13T18:54:33.197Z,98706.69
2023-03-13T18:57:01.900Z,98700.81
2023-03-13T18:59:30.882Z,98690.31
2023-03-13T19:02:03.832Z,98691.19
2023-03-13T19:04:34.631Z,98684.38
2023-03-13T19:07:02.795Z,98685.22
2023-03-13T19:09:47.178Z,98675.72
2023-03-13T19:12:18.826Z,98673.94
2023-03-13T19:14:47.810Z,98672.28
2023-03-13T19:17:30.731Z,98662.75
2023-03-13T19:19:58.872Z,98662.72
2023-03-13T19:22:27.994Z,98661.00
2023-03-13T19:24:56.998Z,98659.25
2023-03-13T19:27:25.516Z,98660.97
2023-03-13T19:29:59.233Z,98651.44
2023-03-13T19:32:28.641Z,98654.03
2023-03-13T19:34:58.472Z,98648.84
2023-03-13T19:37:30.161Z,98651.47
2023-03-13T19:39:59.690Z,98638.47
2023-03-13T19:42:29.073Z,98638.47
2023-03-13T19:44:57.824Z,98635.00
2023-03-13T19:47:26.927Z,98632.38
2023-03-13T19:49:58.112Z,98632.41
2023-03-13T19:52:28.127Z,98627.22
2023-03-13T19:55:05.505Z,98628.97
2023-03-13T19:57:35.907Z,98641.91
2023-03-13T20:00:06.568Z,98634.16
2023-03-13T20:02:41.875Z,98632.44
2023-03-13T20:05:11.168Z,98633.31
2023-03-13T20:07:42.272Z,98633.28
2023-03-13T20:10:13.663Z,98638.50
2023-03-13T20:12:43.553Z,98633.28
2023-03-13T20:15:13.553Z,98642.78
2023-03-13T20:17:42.701Z,98629.78
2023-03-13T20:20:14.158Z,98629.78
2023-03-13T20:22:45.730Z,98626.34
2023-03-13T20:25:16.702Z,98627.22
2023-03-13T20:27:45.854Z,98621.16
2023-03-13T20:30:15.320Z,98622.03
2023-03-13T20:32:58.452Z,98609.94
2023-03-13T20:35:29.339Z,98612.50
2023-03-13T20:38:00.213Z,98596.88
2023-03-13T20:40:29.290Z,98590.00
2023-03-13T20:42:59.457Z,98581.28
2023-03-13T20:45:30.410Z,98580.41
2023-03-13T20:48:01.333Z,98581.16
2023-03-13T20:50:29.663Z,98568.28
2023-03-13T20:52:58.177Z,98566.56
2023-03-13T20:55:27.529Z,98562.22
2023-03-13T20:57:56.145Z,98559.66
2023-03-13T21:00:24.732Z,98539.72
2023-03-13T21:02:55.813Z,98544.81
2023-03-13T21:05:24.327Z,98542.34
2023-03-13T21:07:53.200Z,98526.75
2023-03-13T21:10:22.084Z,98529.31
2023-03-13T21:12:50.454Z,98520.69
2023-03-13T21:15:18.476Z,98512.97
2023-03-13T21:17:47.150Z,98510.34
2023-03-13T21:20:15.885Z,98512.09
2023-03-13T21:22:46.114Z,98507.72
2023-03-13T21:25:14.085Z,98498.97
2023-03-13T21:27:43.818Z,98496.50
2023-03-13T21:30:15.178Z,98483.34
2023-03-13T21:32:43.294Z,98478.09
2023-03-13T21:35:12.648Z,98481.53
2023-03-13T21:37:40.827Z,98472.88
2023-03-13T21:40:10.362Z,98466.81
2023-03-13T21:42:38.148Z,98473.78
2023-03-13T21:45:06.569Z,98476.34
2023-03-13T21:47:37.745Z,98472.03
2023-03-13T21:50:09.076Z,98485.84
2023-03-13T21:52:40.944Z,98469.47
2023-03-13T21:55:18.551Z,98473.78
2023-03-13T21:57:50.106Z,98470.31
2023-03-13T22:00:17.938Z,98462.56
2023-03-13T22:02:46.655Z,98454.84
2023-03-13T22:05:14.874Z,98458.19
2023-03-13T22:07:42.424Z,98455.59
2023-03-13T22:10:10.886Z,98460.87
2023-03-13T22:12:39.139Z,98461.56
2023-03-13T22:15:07.153Z,98448.66
2023-03-13T22:17:35.058Z,98434.03
2023-03-13T22:20:02.484Z,98435.47
2023-03-13T22:22:30.450Z,98433.19
2023-03-13T22:24:58.147Z,98430.41
2023-03-13T22:27:25.597Z,98427.78
2023-03-13T22:29:53.030Z,98414.13
2023-03-13T22:32:21.874Z,98408.19
2023-03-13T22:34:49.502Z,98409.16
2023-03-13T22:37:17.041Z,98402.22
2023-03-13T22:39:44.813Z,98399.50
2023-03-13T22:42:12.208Z,98388.22
2023-03-13T22:44:39.941Z,98393.50
2023-03-13T22:47:07.736Z,98390.97
2023-03-13T22:49:35.152Z,98389.16
2023-03-13T22:52:02.745Z,98382.28
2023-03-13T22:54:30.555Z,98382.28
2023-03-13T22:56:58.150Z,98374.41
2023-03-13T22:59:25.712Z,98373.56
2023-03-13T23:01:53.419Z,98370.97
2023-03-13T23:04:20.884Z,98375.41
2023-03-13T23:06:48.287Z,98371.00
2023-03-13T23:09:16.024Z,98361.53
2023-03-13T23:11:43.809Z,98371.06
2023-03-13T23:14:11.198Z,98366.81
2023-03-13T23:16:39.225Z,98357.34
2023-03-13T23:19:07.914Z,98362.47
2023-03-13T23:21:36.535Z,98354.53
2023-03-13T23:24:04.374Z,98351.06
2023-03-13T23:26:31.813Z,98350.31
2023-03-13T23:28:59.199Z,98351.94
2023-03-13T23:31:26.923Z,98345.03
2023-03-13T23:33:54.341Z,98344.06
2023-03-13T23:36:21.967Z,98341.53
2023-03-13T23:38:50.898Z,98336.41
2023-03-13T23:41:19.056Z,98348.91
2023-03-13T23:43:46.508Z,98346.56
2023-03-13T23:46:40.805Z,98338.22
2023-03-13T23:49:08.207Z,98348.56
2023-03-13T23:51:36.379Z,98338.13
2023-03-13T23:54:04.068Z,98340.72
2023-03-13T23:56:31.797Z,98337.16
2023-03-13T23:58:59.618Z,98335.47
